Terminal Aerodrome Forecast
Issued by NWS Bismarck, ND

Home | Current Version | Previous Version | Text Only | Print | Product List | Glossary On
Versions: 1 2 3 4 5 6 7 8 9 10 11 12 13 14 15 16 17
000
FTUS43 KBIS 221139
TAFBIS
TAF
KBIS 221139Z 2212/2312 23006KT P6SM SKC
     FM221600 21011KT P6SM SCT110 SCT150
     FM221800 23019G28KT P6SM OVC080
     FM222100 24019G26KT P6SM VCSH BKN050 OVC070
     FM230000 26014KT P6SM SCT050 BKN100 WS020/26035KT
     FM230400 27013KT P6SM FEW100 WS020/29040KT
     FM230900 29016KT P6SM BKN100 WS020/30045KT=

USA.gov is the U.S. government's official web portal to all federal, state and local government web resources and services.